Terminal Aerodrome Forecast
Issued by NWS

Home | Current Version | Previous Version | Text Only | Print | Product List | Glossary On
Versions: 1 2 3 4 5 6 7 8 9 10 11 12 13 14 15 16 17
288
FTUS46 KHNX 102332
TAFMER
TAF
KMER 102332Z 1100/1124 15006KT 3SM -RA BR BKN020 OVC030
     FM110300 13005KT 2SM RA BR OVC020
     FM110900 12003KT 4SM BR OVC015
     FM111200 35002KT 2SM BR OVC007
     FM111800 31006KT 3SM BR BKN015=

USA.gov is the U.S. government's official web portal to all federal, state and local government web resources and services.